createdAt,value
2022-11-19T00:00:03.736Z,99.90
2022-11-19T00:02:33.720Z,99.90
2022-11-19T00:05:03.104Z,99.90
2022-11-19T00:07:32.328Z,99.90
2022-11-19T00:10:01.488Z,99.90
2022-11-19T00:12:49.403Z,99.90
2022-11-19T00:15:18.717Z,99.90
2022-11-19T00:17:48.011Z,99.90
2022-11-19T00:20:20.836Z,99.90
2022-11-19T00:22:54.711Z,99.90
2022-11-19T00:25:26.661Z,99.90
2022-11-19T00:27:57.408Z,99.90
2022-11-19T00:30:46.851Z,99.90
2022-11-19T00:33:16.138Z,99.90
2022-11-19T00:35:45.271Z,99.90
2022-11-19T00:38:14.436Z,99.90
2022-11-19T00:40:44.584Z,99.90
2022-11-19T00:43:31.779Z,99.90
2022-11-19T00:46:00.969Z,99.90
2022-11-19T00:48:30.111Z,99.90
2022-11-19T00:50:59.473Z,99.90
2022-11-19T00:53:28.701Z,99.90
2022-11-19T00:56:03.174Z,99.90
2022-11-19T00:58:32.722Z,99.90
2022-11-19T01:01:01.960Z,99.90
2022-11-19T01:03:32.211Z,99.90
2022-11-19T01:06:01.867Z,99.90
2022-11-19T01:08:31.094Z,99.90
2022-11-19T01:11:12.197Z,99.90
2022-11-19T01:13:42.103Z,99.90
2022-11-19T01:16:28.142Z,99.90
2022-11-19T01:18:58.858Z,99.90
2022-11-19T01:21:34.691Z,99.90
2022-11-19T01:24:05.649Z,99.90
2022-11-19T01:26:34.960Z,99.90
2022-11-19T01:29:04.210Z,99.90
2022-11-19T01:31:33.474Z,99.90
2022-11-19T01:34:02.721Z,99.90
2022-11-19T01:36:34.726Z,99.90
2022-11-19T01:39:04.811Z,99.90
2022-11-19T01:41:35.179Z,99.90
2022-11-19T01:44:07.090Z,99.90
2022-11-19T01:46:39.860Z,99.90
2022-11-19T01:49:21.523Z,99.90
2022-11-19T01:52:04.874Z,99.90
2022-11-19T01:54:51.033Z,99.90
2022-11-19T01:57:21.273Z,99.90
2022-11-19T01:59:53.820Z,99.90
2022-11-19T02:02:23.960Z,99.90
2022-11-19T02:04:56.975Z,99.90
2022-11-19T02:07:39.641Z,99.90
2022-11-19T02:10:10.320Z,99.90
2022-11-19T02:13:15.503Z,99.90
2022-11-19T02:16:17.779Z,99.90
2022-11-19T02:19:04.721Z,99.60
2022-11-19T02:22:01.892Z,99.40
2022-11-19T02:25:03.469Z,99.50
2022-11-19T02:28:11.408Z,99.50
2022-11-19T02:30:53.664Z,99.30
2022-11-19T02:33:37.754Z,99.20
2022-11-19T02:36:30.069Z,99.00
2022-11-19T02:39:22.014Z,99.10
2022-11-19T02:42:05.294Z,98.80
2022-11-19T02:45:00.456Z,98.80
2022-11-19T02:48:00.516Z,98.60
2022-11-19T02:50:35.008Z,98.50
2022-11-19T02:53:06.965Z,98.20
2022-11-19T02:55:39.606Z,97.90
2022-11-19T02:58:38.757Z,97.50
2022-11-19T03:01:28.113Z,97.40
2022-11-19T03:04:15.652Z,97.20
2022-11-19T03:06:45.227Z,97.00
2022-11-19T03:09:15.443Z,97.20
2022-11-19T03:11:51.020Z,96.70
2022-11-19T03:14:52.355Z,96.20
2022-11-19T03:17:42.255Z,95.90
2022-11-19T03:20:34.903Z,95.70
2022-11-19T03:23:23.215Z,95.80
2022-11-19T03:26:07.428Z,95.00
2022-11-19T03:28:40.118Z,94.80
2022-11-19T03:31:11.338Z,94.30
2022-11-19T03:33:51.844Z,94.10
2022-11-19T03:36:37.542Z,93.60
2022-11-19T03:39:16.956Z,93.80
2022-11-19T03:41:50.404Z,94.30
2022-11-19T03:44:45.112Z,94.10
2022-11-19T03:47:27.391Z,94.60
2022-11-19T03:50:05.189Z,94.20
2022-11-19T03:52:34.756Z,93.90
2022-11-19T03:55:04.290Z,93.80
2022-11-19T03:57:35.280Z,94.30
2022-11-19T04:00:06.279Z,93.90
2022-11-19T04:02:35.515Z,93.30
2022-11-19T04:05:04.769Z,93.20
2022-11-19T04:07:34.162Z,92.50
2022-11-19T04:10:03.508Z,92.00
2022-11-19T04:12:32.739Z,92.00
2022-11-19T04:15:01.892Z,91.70
2022-11-19T04:17:31.107Z,91.80
2022-11-19T04:20:00.759Z,92.20
2022-11-19T04:22:29.951Z,92.30
2022-11-19T04:24:59.121Z,92.70
2022-11-19T04:27:28.341Z,92.30
2022-11-19T04:29:57.503Z,92.60
2022-11-19T04:32:26.737Z,92.50
2022-11-19T04:34:55.981Z,92.20
2022-11-19T04:37:25.119Z,92.00
2022-11-19T04:39:54.281Z,91.90
2022-11-19T04:42:23.489Z,92.00
2022-11-19T04:44:52.675Z,91.20
2022-11-19T04:47:21.877Z,91.00
2022-11-19T04:49:51.038Z,91.00
2022-11-19T04:52:20.269Z,90.80
2022-11-19T04:54:49.468Z,90.30
2022-11-19T04:57:18.638Z,90.70
2022-11-19T04:59:47.858Z,90.70
2022-11-19T05:02:17.036Z,90.40
2022-11-19T05:04:46.238Z,90.10
2022-11-19T05:07:15.766Z,90.00
2022-11-19T05:09:45.195Z,90.20
2022-11-19T05:12:14.333Z,90.30
2022-11-19T05:14:43.842Z,90.50
2022-11-19T05:17:13.020Z,90.30
2022-11-19T05:19:42.823Z,90.10
2022-11-19T05:22:12.002Z,90.20
2022-11-19T05:24:41.154Z,90.40
2022-11-19T05:27:10.815Z,90.40
2022-11-19T05:29:39.935Z,90.30
2022-11-19T05:32:09.120Z,89.80
2022-11-19T05:34:38.215Z,89.20
2022-11-19T05:37:07.317Z,90.00
2022-11-19T05:39:36.369Z,89.60
2022-11-19T05:42:05.761Z,89.10
2022-11-19T05:44:34.904Z,88.50
2022-11-19T05:47:04.007Z,89.20
2022-11-19T05:49:33.158Z,89.20
2022-11-19T05:52:02.223Z,88.60
2022-11-19T05:54:31.338Z,87.40
2022-11-19T05:57:00.620Z,87.20
2022-11-19T05:59:29.798Z,88.30
2022-11-19T06:01:59.077Z,87.40
2022-11-19T06:04:28.163Z,86.90
2022-11-19T06:06:57.720Z,87.00
2022-11-19T06:09:27.047Z,86.90
2022-11-19T06:11:56.149Z,87.30
2022-11-19T06:14:28.231Z,86.40
2022-11-19T06:17:00.770Z,86.00
2022-11-19T06:19:30.001Z,86.90
2022-11-19T06:21:59.082Z,86.30
2022-11-19T06:24:28.304Z,86.60
2022-11-19T06:26:57.464Z,86.10
2022-11-19T06:29:26.753Z,86.30
2022-11-19T06:31:55.921Z,85.50
2022-11-19T06:34:27.883Z,85.60
2022-11-19T06:36:57.021Z,86.20
2022-11-19T06:39:26.141Z,86.60
2022-11-19T06:41:55.250Z,86.40
2022-11-19T06:44:24.317Z,85.90
2022-11-19T06:46:53.439Z,86.40
2022-11-19T06:49:22.685Z,86.30
2022-11-19T06:51:51.950Z,86.60
2022-11-19T06:54:21.088Z,87.00
2022-11-19T06:56:52.789Z,87.30
2022-11-19T06:59:22.523Z,87.20
2022-11-19T07:01:51.676Z,86.50
2022-11-19T07:04:20.845Z,86.90
2022-11-19T07:06:50.336Z,86.50
2022-11-19T07:09:19.768Z,86.40
2022-11-19T07:11:49.109Z,86.70
2022-11-19T07:14:18.313Z,87.10
2022-11-19T07:16:47.540Z,86.40
2022-11-19T07:19:17.474Z,86.30
2022-11-19T07:21:46.981Z,86.70
2022-11-19T07:24:19.190Z,86.60
2022-11-19T07:26:48.478Z,86.60
2022-11-19T07:29:18.546Z,87.10
2022-11-19T07:31:51.603Z,86.30
2022-11-19T07:34:21.463Z,86.00
2022-11-19T07:36:51.299Z,85.60
2022-11-19T07:39:20.703Z,86.00
2022-11-19T07:42:08.479Z,85.70
2022-11-19T07:44:37.712Z,85.80
2022-11-19T07:47:09.809Z,86.30
2022-11-19T07:49:39.035Z,86.30
2022-11-19T07:52:08.217Z,86.30
2022-11-19T07:54:37.521Z,86.20
2022-11-19T07:57:06.776Z,86.20
2022-11-19T07:59:36.036Z,86.80
2022-11-19T08:02:05.465Z,86.40
2022-11-19T08:04:34.919Z,86.30
2022-11-19T08:07:04.124Z,86.40
2022-11-19T08:09:33.410Z,86.00
2022-11-19T08:12:02.706Z,85.90
2022-11-19T08:14:31.907Z,86.00
2022-11-19T08:17:20.433Z,86.20
2022-11-19T08:19:49.698Z,85.70
2022-11-19T08:22:19.031Z,86.20
2022-11-19T08:24:48.372Z,86.10
2022-11-19T08:27:19.573Z,85.70
2022-11-19T08:29:48.988Z,86.20
2022-11-19T08:32:18.281Z,85.70
2022-11-19T08:34:47.598Z,86.00
2022-11-19T08:37:16.958Z,85.70
2022-11-19T08:39:46.324Z,85.80
2022-11-19T08:42:33.644Z,86.30
2022-11-19T08:45:03.074Z,86.50
2022-11-19T08:47:32.341Z,86.90
2022-11-19T08:50:02.424Z,86.30
2022-11-19T08:52:31.825Z,86.90
2022-11-19T08:55:01.098Z,86.80
2022-11-19T08:57:30.412Z,87.20
2022-11-19T09:00:05.700Z,87.10
2022-11-19T09:02:35.729Z,87.10
2022-11-19T09:05:05.079Z,86.70
2022-11-19T09:07:34.433Z,86.90
2022-11-19T09:10:03.703Z,87.50
2022-11-19T09:12:33.040Z,87.10
2022-11-19T09:15:02.374Z,87.40
2022-11-19T09:17:31.710Z,87.50
2022-11-19T09:20:01.116Z,87.70
2022-11-19T09:22:32.403Z,87.50
2022-11-19T09:25:01.766Z,87.50
2022-11-19T09:27:31.180Z,87.10
2022-11-19T09:30:00.485Z,87.30
2022-11-19T09:32:30.790Z,87.30
2022-11-19T09:35:00.163Z,86.80
2022-11-19T09:37:32.506Z,86.60
2022-11-19T09:40:02.228Z,86.70
2022-11-19T09:43:34.525Z,87.30
2022-11-19T09:46:21.045Z,87.60
2022-11-19T09:48:53.896Z,87.80
2022-11-19T09:51:31.916Z,87.80
2022-11-19T09:54:17.545Z,87.20
2022-11-19T09:56:51.253Z,88.00
2022-11-19T09:59:40.065Z,88.10
2022-11-19T10:02:21.818Z,88.10
2022-11-19T10:04:53.103Z,88.70
2022-11-19T10:07:40.803Z,88.60
2022-11-19T10:10:42.256Z,89.00
2022-11-19T10:13:17.600Z,89.30
2022-11-19T10:16:05.699Z,89.50
2022-11-19T10:18:51.578Z,90.00
2022-11-19T10:21:54.448Z,90.40
2022-11-19T10:24:30.567Z,90.30
2022-11-19T10:27:13.352Z,90.50
2022-11-19T10:29:42.921Z,90.70
2022-11-19T10:32:44.052Z,90.80
2022-11-19T10:35:29.077Z,90.80
2022-11-19T10:38:15.154Z,91.00
2022-11-19T10:41:15.581Z,91.20
2022-11-19T10:44:01.805Z,91.40
2022-11-19T10:46:31.348Z,91.40
2022-11-19T10:49:03.344Z,91.50
2022-11-19T10:51:43.988Z,91.60
2022-11-19T10:54:28.923Z,91.80
2022-11-19T10:57:00.147Z,91.80
2022-11-19T10:59:34.124Z,91.90
2022-11-19T11:02:27.805Z,92.00
2022-11-19T11:05:20.061Z,92.10
2022-11-19T11:07:58.522Z,92.20
2022-11-19T11:10:46.696Z,92.30
2022-11-19T11:13:39.434Z,92.40
2022-11-19T11:16:13.606Z,92.50
2022-11-19T11:18:44.387Z,92.70
2022-11-19T11:21:30.253Z,92.70
2022-11-19T11:24:00.461Z,92.80
2022-11-19T11:26:32.037Z,93.20
2022-11-19T11:29:09.770Z,93.10
2022-11-19T11:31:43.145Z,93.20
2022-11-19T11:34:44.830Z,93.40
2022-11-19T11:37:14.792Z,93.40
2022-11-19T11:39:45.438Z,93.70
2022-11-19T11:42:21.264Z,93.90
2022-11-19T11:44:58.544Z,94.40
2022-11-19T11:47:41.753Z,94.30
2022-11-19T11:50:22.547Z,94.60
2022-11-19T11:52:55.478Z,94.60
2022-11-19T11:55:27.816Z,94.80
2022-11-19T11:58:04.906Z,94.80
2022-11-19T12:00:48.022Z,94.90
2022-11-19T12:03:21.011Z,95.00
2022-11-19T12:06:18.028Z,95.20
2022-11-19T12:08:55.608Z,95.10
2022-11-19T12:11:58.391Z,95.50
2022-11-19T12:14:54.430Z,95.40
2022-11-19T12:18:02.412Z,95.60
2022-11-19T12:21:06.340Z,95.60
2022-11-19T12:23:41.876Z,95.70
2022-11-19T12:26:19.693Z,95.50
2022-11-19T12:28:54.559Z,95.80
2022-11-19T12:31:38.705Z,95.80
2022-11-19T12:34:38.080Z,95.90
2022-11-19T12:38:02.310Z,95.90
2022-11-19T12:41:00.320Z,96.00
2022-11-19T12:43:55.088Z,96.00
2022-11-19T12:46:45.010Z,95.90
2022-11-19T12:49:49.227Z,96.20
2022-11-19T12:52:52.480Z,96.00
2022-11-19T12:55:40.195Z,96.10
2022-11-19T12:58:50.707Z,96.10
2022-11-19T13:01:33.031Z,96.20
2022-11-19T13:04:18.237Z,96.30
2022-11-19T13:07:06.629Z,96.20
2022-11-19T13:10:07.098Z,96.20
2022-11-19T13:12:47.816Z,96.30
2022-11-19T13:15:35.588Z,96.30
2022-11-19T13:18:13.284Z,96.30
2022-11-19T13:21:05.590Z,96.50
2022-11-19T13:23:45.918Z,96.40
2022-11-19T13:26:25.318Z,96.40
2022-11-19T13:29:38.518Z,96.50
2022-11-19T13:32:27.562Z,96.40
2022-11-19T13:35:33.392Z,96.50
2022-11-19T13:38:36.075Z,96.40
2022-11-19T13:42:15.808Z,96.50
2022-11-19T13:44:45.624Z,96.60
2022-11-19T13:47:17.500Z,96.70
2022-11-19T13:49:55.824Z,96.60
2022-11-19T13:53:06.072Z,96.60
2022-11-19T13:55:41.824Z,96.40
2022-11-19T13:58:38.934Z,96.60
2022-11-19T14:01:31.481Z,96.70
2022-11-19T14:04:41.473Z,96.70
2022-11-19T14:07:54.775Z,96.80
2022-11-19T14:10:50.632Z,96.80
2022-11-19T14:13:46.014Z,96.90
2022-11-19T14:17:02.292Z,97.00
2022-11-19T14:20:07.205Z,96.90
2022-11-19T14:23:02.262Z,97.10
2022-11-19T14:26:09.121Z,97.10
2022-11-19T14:28:49.429Z,97.10
2022-11-19T14:31:21.768Z,97.20
2022-11-19T14:33:50.916Z,97.40
2022-11-19T14:36:28.560Z,97.20
2022-11-19T14:39:04.360Z,97.40
2022-11-19T14:41:36.563Z,97.30
2022-11-19T14:44:36.962Z,97.40
2022-11-19T14:47:27.451Z,97.20
2022-11-19T14:50:04.196Z,97.40
2022-11-19T14:52:53.947Z,97.50
2022-11-19T14:55:29.190Z,97.70
2022-11-19T14:58:19.462Z,97.60
2022-11-19T15:00:49.279Z,97.70
2022-11-19T15:03:28.747Z,97.70
2022-11-19T15:05:58.306Z,97.70
2022-11-19T15:08:32.072Z,97.80
2022-11-19T15:11:15.937Z,97.80
2022-11-19T15:14:34.341Z,97.80
2022-11-19T15:17:11.591Z,97.90
2022-11-19T15:20:24.937Z,98.00
2022-11-19T15:23:17.787Z,98.00
2022-11-19T15:25:49.912Z,98.10
2022-11-19T15:28:43.577Z,98.30
2022-11-19T15:31:52.796Z,98.20
2022-11-19T15:35:22.106Z,98.40
2022-11-19T15:38:30.660Z,98.30
2022-11-19T15:41:04.856Z,98.40
2022-11-19T15:43:50.398Z,98.50
2022-11-19T15:46:34.045Z,98.50
2022-11-19T15:49:22.058Z,98.60
2022-11-19T15:52:27.081Z,98.60
2022-11-19T15:55:26.310Z,98.10
2022-11-19T15:57:56.627Z,98.70
2022-11-19T16:00:26.264Z,98.80
2022-11-19T16:02:55.994Z,98.80
2022-11-19T16:05:34.717Z,98.80
2022-11-19T16:08:13.133Z,99.00
2022-11-19T16:10:47.231Z,98.80
2022-11-19T16:13:48.218Z,98.50
2022-11-19T16:16:48.811Z,98.80
2022-11-19T16:19:19.685Z,98.90
2022-11-19T16:22:04.686Z,99.00
2022-11-19T16:24:52.497Z,99.00
2022-11-19T16:27:26.743Z,99.20
2022-11-19T16:29:56.489Z,99.20
2022-11-19T16:32:29.003Z,99.20
2022-11-19T16:35:25.608Z,99.30
2022-11-19T16:37:57.550Z,99.30
2022-11-19T16:40:28.003Z,99.70
2022-11-19T16:43:02.283Z,99.50
2022-11-19T16:45:33.830Z,99.50
2022-11-19T16:48:05.961Z,99.60
2022-11-19T16:50:45.299Z,99.70
2022-11-19T16:53:48.447Z,99.80
2022-11-19T16:56:17.673Z,99.70
2022-11-19T16:58:48.112Z,99.80
2022-11-19T17:01:20.488Z,99.90
2022-11-19T17:03:49.997Z,99.90
2022-11-19T17:06:26.704Z,99.90
2022-11-19T17:09:02.557Z,99.90
2022-11-19T17:12:11.285Z,99.90
2022-11-19T17:14:53.969Z,99.90
2022-11-19T17:17:40.279Z,99.90
2022-11-19T17:20:34.853Z,99.90
2022-11-19T17:23:17.219Z,99.90
2022-11-19T17:26:07.688Z,99.90
2022-11-19T17:28:47.576Z,99.90
2022-11-19T17:31:29.143Z,99.90
2022-11-19T17:34:23.320Z,99.90
2022-11-19T17:36:52.551Z,99.90
2022-11-19T17:39:25.378Z,99.90
2022-11-19T17:42:15.715Z,99.90
2022-11-19T17:45:10.590Z,99.90
2022-11-19T17:47:40.299Z,99.90
2022-11-19T17:50:09.988Z,99.90
2022-11-19T17:52:42.180Z,99.90
2022-11-19T17:55:23.513Z,99.90
2022-11-19T17:57:52.720Z,99.90
2022-11-19T18:00:22.058Z,99.90
2022-11-19T18:02:51.785Z,99.90
2022-11-19T18:05:29.741Z,99.90
2022-11-19T18:07:58.986Z,99.90
2022-11-19T18:10:28.453Z,99.90
2022-11-19T18:12:57.823Z,99.90
2022-11-19T18:15:27.089Z,99.90
2022-11-19T18:17:56.408Z,99.90
2022-11-19T18:20:26.292Z,99.90
2022-11-19T18:22:55.982Z,99.90
2022-11-19T18:25:25.237Z,99.90
2022-11-19T18:27:54.435Z,99.90
2022-11-19T18:30:23.632Z,99.90
2022-11-19T18:32:52.898Z,99.90
2022-11-19T18:35:23.604Z,99.90
2022-11-19T18:37:52.972Z,99.90
2022-11-19T18:40:22.422Z,99.90
2022-11-19T18:43:09.840Z,99.90
2022-11-19T18:45:39.033Z,99.90
2022-11-19T18:48:08.166Z,99.90
2022-11-19T18:50:37.331Z,99.90
2022-11-19T18:53:06.402Z,99.90
2022-11-19T18:55:35.538Z,99.90
2022-11-19T18:58:10.159Z,99.90
2022-11-19T19:00:39.215Z,99.90
2022-11-19T19:03:11.968Z,99.90
2022-11-19T19:05:44.537Z,99.90
2022-11-19T19:08:14.997Z,99.90
2022-11-19T19:10:44.070Z,99.90
2022-11-19T19:13:16.300Z,99.90
2022-11-19T19:15:45.403Z,99.90
2022-11-19T19:18:15.380Z,99.90
2022-11-19T19:20:44.552Z,99.90
2022-11-19T19:23:13.741Z,99.90
2022-11-19T19:25:43.884Z,99.90
2022-11-19T19:28:13.050Z,99.90
2022-11-19T19:30:42.820Z,99.90
2022-11-19T19:33:12.081Z,99.90
2022-11-19T19:35:41.444Z,99.90
2022-11-19T19:38:10.575Z,99.90
2022-11-19T19:40:39.870Z,99.90
2022-11-19T19:43:09.269Z,99.90
2022-11-19T19:45:39.663Z,99.90
2022-11-19T19:48:08.965Z,99.90
2022-11-19T19:50:38.148Z,99.90
2022-11-19T19:53:07.351Z,99.90
2022-11-19T19:55:36.511Z,99.90
2022-11-19T19:58:08.103Z,99.90
2022-11-19T20:00:39.855Z,99.90
2022-11-19T20:03:09.223Z,99.90
2022-11-19T20:05:38.465Z,99.90
2022-11-19T20:08:07.770Z,99.90
2022-11-19T20:10:36.990Z,99.90
2022-11-19T20:13:24.259Z,99.90
2022-11-19T20:15:53.498Z,99.90
2022-11-19T20:18:22.753Z,99.90
2022-11-19T20:20:52.913Z,99.90
2022-11-19T20:23:22.176Z,99.90
2022-11-19T20:25:51.369Z,99.90
2022-11-19T20:28:20.528Z,99.90
2022-11-19T20:30:49.755Z,99.90
2022-11-19T20:33:19.233Z,99.90
2022-11-19T20:35:55.464Z,99.90
2022-11-19T20:38:24.834Z,99.90
2022-11-19T20:41:07.193Z,99.90
2022-11-19T20:43:55.287Z,99.90
2022-11-19T20:46:24.541Z,99.90
2022-11-19T20:48:53.806Z,99.90
2022-11-19T20:51:22.951Z,99.90
2022-11-19T20:53:52.118Z,99.90
2022-11-19T20:56:21.302Z,99.90
2022-11-19T20:58:50.749Z,99.90
2022-11-19T21:01:20.121Z,99.90
2022-11-19T21:03:49.616Z,99.90
2022-11-19T21:06:18.945Z,99.90
2022-11-19T21:08:48.281Z,99.90
2022-11-19T21:11:18.018Z,99.90
2022-11-19T21:13:47.441Z,99.90
2022-11-19T21:16:23.670Z,99.90
2022-11-19T21:18:54.026Z,99.90
2022-11-19T21:21:27.499Z,99.90
2022-11-19T21:23:56.832Z,99.90
2022-11-19T21:26:28.924Z,99.90
2022-11-19T21:29:00.905Z,99.90
2022-11-19T21:31:39.592Z,99.90
2022-11-19T21:34:29.052Z,99.90
2022-11-19T21:36:58.465Z,99.90
2022-11-19T21:39:28.374Z,99.90
2022-11-19T21:41:57.934Z,99.90
2022-11-19T21:44:27.147Z,99.90
2022-11-19T21:46:56.344Z,99.90
2022-11-19T21:49:25.580Z,99.90
2022-11-19T21:51:56.017Z,99.90
2022-11-19T21:54:25.186Z,99.90
2022-11-19T21:56:54.414Z,99.90
2022-11-19T21:59:23.803Z,99.90
2022-11-19T22:01:54.840Z,99.90
2022-11-19T22:04:24.321Z,99.90
2022-11-19T22:06:53.505Z,99.90
2022-11-19T22:09:22.899Z,99.90
2022-11-19T22:11:52.321Z,99.90
2022-11-19T22:14:21.485Z,99.90
2022-11-19T22:16:52.766Z,99.90
2022-11-19T22:19:22.572Z,99.90
2022-11-19T22:21:51.970Z,99.90
2022-11-19T22:24:21.153Z,99.90
2022-11-19T22:26:50.385Z,99.90
2022-11-19T22:29:19.835Z,99.90
2022-11-19T22:31:49.298Z,99.90
2022-11-19T22:34:18.435Z,99.90
2022-11-19T22:36:47.614Z,99.90
2022-11-19T22:39:16.827Z,99.90
2022-11-19T22:41:46.101Z,99.90
2022-11-19T22:44:15.291Z,99.90
2022-11-19T22:46:44.664Z,99.90
2022-11-19T22:49:14.519Z,99.90
2022-11-19T22:51:43.729Z,99.90
2022-11-19T22:54:14.862Z,99.90
2022-11-19T22:56:44.201Z,99.90
2022-11-19T22:59:13.388Z,99.90
2022-11-19T23:01:42.677Z,99.90
2022-11-19T23:04:16.567Z,99.90
2022-11-19T23:06:45.787Z,99.90
2022-11-19T23:09:14.929Z,99.90
2022-11-19T23:12:02.564Z,99.90
2022-11-19T23:14:31.825Z,99.90
2022-11-19T23:17:01.409Z,99.90
2022-11-19T23:19:30.584Z,99.90
2022-11-19T23:21:59.796Z,99.90
2022-11-19T23:24:28.933Z,99.90
2022-11-19T23:26:58.056Z,99.90
2022-11-19T23:29:27.353Z,99.90
2022-11-19T23:31:56.560Z,99.90
2022-11-19T23:34:25.688Z,99.90
2022-11-19T23:36:55.215Z,99.90
2022-11-19T23:39:24.462Z,99.90
2022-11-19T23:41:53.580Z,99.90
2022-11-19T23:44:22.797Z,99.90
2022-11-19T23:46:51.948Z,99.90
2022-11-19T23:49:21.799Z,99.90
2022-11-19T23:51:51.101Z,99.90
2022-11-19T23:54:20.247Z,99.90
2022-11-19T23:56:49.540Z,99.90
2022-11-19T23:59:21.838Z,99.90
